Welcome to Des Moines Iowa Weather. I am an independent private personal weather station on the Northwest Side of Des Moines, Iowa. Just East of Windsor Heights and just West of Glendale . This site is also mobile friendly.

There are no active watches, warnings or advisories


Visit our other weather sites:

Historical Data

Weather Station Setup



Weather Underground History page Text

Daily Summary for January 11, 2018 Units:  Metric    English   Both
« Previous Day
Next Day »
Daily Weekly Monthly Yearly Custom
  High: Low: Average:
Temperature: 5.8 °C -14.7 °C -7 °C
Dew Point: 5 °C -17.2 °C -8.6 °C
Humidity: 94 % 82 % 88 %
Wind Speed: 22.5 km/h 0 km/h 8.4 km/h
Wind Gust: 38.6 km/h - -
Wind:- - West
Pressure: 1025.3 hPa 1001.9 hPa -
Precipitation: 1.78 mm    
Historical Graphs
 
 
Tabular Data for January 11, 2018
Time Temperature Dew Point Pressure Wind Wind Speed Wind Gust Humidity Rainfall Rate (Hourly)
00:09 5.7 °C 5 °C 1001.9 hPa Calm   3.2 km/h 94 % 0 mm
00:24 5.7 °C 5 °C 1001.9 hPa Calm   6.4 km/h 94 % 0 mm
00:39 5.8 °C 5 °C 1001.9 hPa Calm   3.2 km/h 94 % 0 mm
00:54 5.8 °C 5 °C 1001.9 hPa Calm   3.2 km/h 94 % 0 mm
01:24 5.8 °C 5 °C 1001.9 hPa Calm   4.8 km/h 93 % 0.25 mm
01:39 5.8 °C 5 °C 1002.3 hPa Calm     93 % 0.51 mm
01:54 5.7 °C 5 °C 1001.9 hPa Calm   11.3 km/h 93 % 1.02 mm
02:09 5.7 °C 4.4 °C 1002.6 hPa Calm     93 % 1.27 mm
02:24 5.5 °C 4.4 °C 1002.6 hPa Calm   1.6 km/h 93 % 1.02 mm
02:39 5.3 °C 4.4 °C 1003.3 hPa Calm     94 % 0.76 mm
02:54 5.3 °C 4.4 °C 1003.3 hPa Calm     94 % 0.25 mm
03:09 5.4 °C 4.4 °C 1003.3 hPa NNW 1.6 km/h 8 km/h 94 % 0 mm
03:39 4.9 °C 3.9 °C 1003.6 hPa NNW 1.6 km/h 16.1 km/h 94 % 0 mm
03:54 4.6 °C 3.9 °C 1003.6 hPa NNW 1.6 km/h 16.1 km/h 94 % 0 mm
04:09 4.3 °C 3.3 °C 1004.3 hPa WNW 3.2 km/h 11.3 km/h 94 % 0.25 mm
04:25 4 °C 3.3 °C 1004.3 hPa West 11.3 km/h 20.9 km/h 94 % 0.25 mm
04:40 1.7 °C 0.6 °C 1005 hPa NW 9.7 km/h 27.4 km/h 92 % 0.51 mm
04:55 0.5 °C -0.6 °C 1005.3 hPa NNW 9.7 km/h 25.7 km/h 93 % 0.51 mm
05:10 -0.8 °C -1.7 °C 1005.6 hPa WNW 3.2 km/h 25.7 km/h 92 % 0.25 mm
05:25 -1.5 °C -2.2 °C 1006.7 hPa North 6.4 km/h 27.4 km/h 93 % 0.25 mm
05:40 -2.3 °C -3.3 °C 1007 hPa North 16.1 km/h 27.4 km/h 92 % 0 mm
05:55 -3.3 °C -4.4 °C 1007.3 hPa NNW 6.4 km/h 24.1 km/h 92 % 0 mm
06:10 -3.7 °C -5 °C 1007.7 hPa WNW 12.9 km/h 27.4 km/h 92 % 0 mm
06:25 -4.3 °C -5.6 °C 1008 hPa NNW 12.9 km/h 22.5 km/h 91 % 0 mm
06:40 -5.1 °C -6.7 °C 1008.7 hPa NW 9.7 km/h 25.7 km/h 90 % 0 mm
06:55 -5.6 °C -6.7 °C 1009 hPa WNW 4.8 km/h 24.1 km/h 90 % 0 mm
07:10 -5.8 °C -7.2 °C 1009.4 hPa NW 4.8 km/h 24.1 km/h 90 % 0 mm
07:25 -6.1 °C -7.2 °C 1009.4 hPa WNW 8 km/h 25.7 km/h 91 % 0 mm
07:40 -6.3 °C -7.8 °C 1009.7 hPa NW 6.4 km/h 25.7 km/h 91 % 0 mm
07:55 -6.4 °C -7.2 °C 1009.7 hPa NE 8 km/h 19.3 km/h 92 % 0 mm
08:11 -6.8 °C -7.8 °C 1009.7 hPa NNW 14.5 km/h 24.1 km/h 92 % 0 mm
08:26 -6.9 °C -7.8 °C 1010 hPa NNW 8 km/h 16.1 km/h 92 % 0 mm
08:41 -7.3 °C -8.3 °C 1011.1 hPa NW 3.2 km/h 27.4 km/h 92 % 0 mm
08:56 -7.8 °C -8.9 °C 1012.1 hPa WNW 11.3 km/h 27.4 km/h 92 % 0 mm
09:11 -8.1 °C -8.9 °C 1011.7 hPa NW 9.7 km/h 24.1 km/h 92 % 0 mm
09:26 -8.4 °C -9.4 °C 1012.8 hPa NW 8 km/h 22.5 km/h 91 % 0 mm
09:41 -8.7 °C -10 °C 1013.4 hPa WNW 4.8 km/h 24.1 km/h 91 % 0 mm
09:56 -8.9 °C -10 °C 1013.8 hPa WNW 6.4 km/h 32.2 km/h 91 % 0 mm
10:11 -9.2 °C -10.6 °C 1014.1 hPa WNW 6.4 km/h 20.9 km/h 90 % 0 mm
10:26 -9.4 °C -10.6 °C 1013.8 hPa NW 20.9 km/h 30.6 km/h 90 % 0 mm
10:41 -9.6 °C -11.1 °C 1014.1 hPa NW 6.4 km/h 24.1 km/h 90 % 0 mm
10:56 -9.9 °C -11.1 °C 1013.8 hPa NW 6.4 km/h 33.8 km/h 90 % 0 mm
11:11 -10.2 °C -11.7 °C 1014.1 hPa NE 8 km/h 25.7 km/h 90 % 0 mm
11:26 -9.9 °C -11.1 °C 1014.4 hPa WNW 16.1 km/h 25.7 km/h 90 % 0 mm
11:41 -10.2 °C -11.7 °C 1014.4 hPa NW 6.4 km/h 32.2 km/h 89 % 0 mm
11:56 -10.1 °C -11.7 °C 1014.8 hPa NW 20.9 km/h 25.7 km/h 88 % 0 mm
12:11 -10.2 °C -11.7 °C 1015.5 hPa WNW 3.2 km/h 30.6 km/h 87 % 0 mm
12:26 -10.6 °C -12.2 °C 1014.8 hPa West 16.1 km/h 33.8 km/h 86 % 0 mm
12:42 -10.8 °C -12.8 °C 1015.1 hPa ESE 14.5 km/h 35.4 km/h 86 % 0 mm
12:57 -10.8 °C -12.8 °C 1015.1 hPa WNW 4.8 km/h 32.2 km/h 86 % 0 mm
13:12 -10.8 °C -12.8 °C 1015.1 hPa WNW 8 km/h 32.2 km/h 85 % 0 mm
13:27 -11.3 °C -13.3 °C 1015.5 hPa WNW 22.5 km/h 30.6 km/h 85 % 0 mm
13:42 -11.6 °C -13.3 °C 1015.8 hPa WNW 8 km/h 22.5 km/h 86 % 0 mm
13:57 -11.8 °C -13.9 °C 1015.8 hPa NW 6.4 km/h 25.7 km/h 85 % 0 mm
14:12 -11.7 °C -13.3 °C 1016.1 hPa NW 17.7 km/h 24.1 km/h 86 % 0 mm
14:27 -11.8 °C -13.9 °C 1016.1 hPa NW 20.9 km/h 38.6 km/h 85 % 0 mm
14:42 -11.7 °C -13.9 °C 1016.5 hPa WNW 6.4 km/h 25.7 km/h 85 % 0 mm
14:57 -11.4 °C -13.3 °C 1016.8 hPa NW 4.8 km/h 27.4 km/h 85 % 0 mm
15:12 -11.5 °C -13.9 °C 1017.5 hPa NW 6.4 km/h 35.4 km/h 84 % 0 mm
15:27 -11.7 °C -13.9 °C 1018.2 hPa West 9.7 km/h 29 km/h 85 % 0 mm
15:42 -11.4 °C -13.9 °C 1018.5 hPa NW 12.9 km/h 24.1 km/h 83 % 0 mm
15:57 -11.7 °C -13.9 °C 1018.5 hPa North 3.2 km/h 22.5 km/h 84 % 0 mm
16:12 -11.9 °C -14.4 °C 1018.8 hPa NNE 9.7 km/h 29 km/h 83 % 0 mm
16:28 -11.8 °C -13.9 °C 1019.5 hPa NNW 9.7 km/h 24.1 km/h 85 % 0 mm
16:43 -11.8 °C -13.9 °C 1019.9 hPa North 3.2 km/h 20.9 km/h 85 % 0 mm
16:58 -11.8 °C -13.9 °C 1020.2 hPa NW 16.1 km/h 19.3 km/h 85 % 0 mm
17:13 -11.9 °C -13.9 °C 1020.2 hPa NW 16.1 km/h 16.1 km/h 86 % 0 mm
17:28 -12.1 °C -13.9 °C 1020.5 hPa North 8 km/h 25.7 km/h 86 % 0 mm
17:43 -12.1 °C -13.9 °C 1020.9 hPa NW 14.5 km/h 27.4 km/h 86 % 0 mm
17:58 -12 °C -13.9 °C 1021.2 hPa NW 11.3 km/h 16.1 km/h 85 % 0 mm
18:13 -12 °C -13.9 °C 1021.2 hPa NW 14.5 km/h 20.9 km/h 85 % 0 mm
18:28 -12 °C -13.9 °C 1021.6 hPa NW 20.9 km/h 25.7 km/h 85 % 0 mm
18:43 -11.8 °C -13.9 °C 1021.6 hPa WNW 6.4 km/h 25.7 km/h 85 % 0 mm
19:28 -11.7 °C -13.9 °C 1022.6 hPa North 4.8 km/h 29 km/h 84 % 0 mm
19:43 -11.7 °C -13.9 °C 1022.6 hPa NW 8 km/h 25.7 km/h 84 % 0 mm
19:59 -11.7 °C -13.9 °C 1022.6 hPa NW 12.9 km/h 20.9 km/h 85 % 0 mm
20:14 -11.8 °C -13.9 °C 1022.9 hPa NW 4.8 km/h 27.4 km/h 85 % 0 mm
20:29 -11.9 °C -13.9 °C 1023.2 hPa North 19.3 km/h 27.4 km/h 86 % 0 mm
20:44 -11.9 °C -13.9 °C 1023.6 hPa NW 4.8 km/h 24.1 km/h 84 % 0 mm
20:59 -12.4 °C -14.4 °C 1023.9 hPa WNW 17.7 km/h 27.4 km/h 84 % 0 mm
21:14 -12.9 °C -15 °C 1024.3 hPa NW 19.3 km/h 20.9 km/h 84 % 0 mm
21:29 -13.3 °C -15.6 °C 1024.3 hPa NW 9.7 km/h 32.2 km/h 83 % 0 mm
21:44 -13.6 °C -15.6 °C 1024.3 hPa WNW 12.9 km/h 24.1 km/h 83 % 0 mm
21:59 -13.7 °C -16.1 °C 1024.6 hPa WNW 3.2 km/h 25.7 km/h 83 % 0 mm
22:14 -13.8 °C -16.1 °C 1024.6 hPa North 1.6 km/h 19.3 km/h 83 % 0 mm
22:29 -14 °C -16.1 °C 1024.9 hPa North 8 km/h 17.7 km/h 84 % 0 mm
22:59 -14.3 °C -16.7 °C 1024.9 hPa North 4.8 km/h 17.7 km/h 84 % 0 mm
23:15 -14.4 °C -16.7 °C 1024.9 hPa North 12.9 km/h 17.7 km/h 83 % 0 mm
23:30 -14.7 °C -17.2 °C 1025.3 hPa North 6.4 km/h 19.3 km/h 82 % 0 mm
Des Moines Weather and Climate
Compliments of Weather Underground - 2.75 mb

Script developed by  Jim McMurry - jmcmurry@mwt.net Adapted for the template by  Wim van der Kuil - Leuven-Template.eu

You find our weather info also at:

Weather Underground

Equipment we use:

Weather-station
Davis VP2 Plus

Weather-program
Davis Weatherlink.Com

Weather-server
iMac (Retina 4K, 21.5-inch, Late 2015)

Provider
Hostmonster.com

Davis VP2 Plus

Davis Weatherlink.Com

iMac (Retina 4K, 21.5-inch, Late 2015)

Hostmonster.com